createdAt,value
2017-12-09T00:00:14.622Z,0
2017-12-09T00:01:23.420Z,0
2017-12-09T00:02:32.214Z,0
2017-12-09T00:03:41.011Z,0
2017-12-09T00:04:49.545Z,0
2017-12-09T00:05:58.348Z,0
2017-12-09T00:07:07.412Z,0
2017-12-09T00:08:16.475Z,0
2017-12-09T00:09:25.277Z,0
2017-12-09T00:10:34.339Z,0
2017-12-09T00:11:43.133Z,0
2017-12-09T00:12:51.663Z,0
2017-12-09T00:14:00.461Z,0
2017-12-09T00:15:08.997Z,0
2017-12-09T00:16:17.796Z,0
2017-12-09T00:17:26.591Z,0
2017-12-09T00:18:35.664Z,0
2017-12-09T00:19:44.194Z,0
2017-12-09T00:20:52.989Z,0
2017-12-09T00:22:01.789Z,0
2017-12-09T00:23:10.591Z,0
2017-12-09T00:24:19.388Z,0
2017-12-09T00:25:28.447Z,0
2017-12-09T00:26:36.975Z,0
2017-12-09T00:27:45.771Z,0
2017-12-09T00:28:54.298Z,0
2017-12-09T00:30:03.363Z,0
2017-12-09T00:31:12.164Z,0
2017-12-09T00:32:20.962Z,0
2017-12-09T00:33:29.766Z,0
2017-12-09T00:34:38.560Z,0
2017-12-09T00:35:50.418Z,0
2017-12-09T00:36:59.213Z,0
2017-12-09T00:38:07.744Z,0
2017-12-09T00:39:16.541Z,0
2017-12-09T00:40:25.338Z,0
2017-12-09T00:41:34.136Z,0
2017-12-09T00:42:42.663Z,0
2017-12-09T00:43:51.460Z,0
2017-12-09T00:44:59.994Z,0
2017-12-09T00:46:09.065Z,0
2017-12-09T00:47:17.596Z,0
2017-12-09T00:48:26.670Z,0
2017-12-09T00:49:35.465Z,0
2017-12-09T00:50:43.996Z,0
2017-12-09T00:51:52.525Z,0
2017-12-09T00:53:01.324Z,0
2017-12-09T00:54:10.121Z,0
2017-12-09T00:55:18.655Z,0
2017-12-09T00:56:27.714Z,0
2017-12-09T00:57:36.245Z,0
2017-12-09T00:58:44.778Z,0
2017-12-09T00:59:53.576Z,0
2017-12-09T01:01:02.372Z,0
2017-12-09T01:02:10.902Z,0
2017-12-09T01:03:19.966Z,0
2017-12-09T01:04:28.499Z,0
2017-12-09T01:05:37.030Z,0
2017-12-09T01:06:46.108Z,0
2017-12-09T01:07:54.906Z,0
2017-12-09T01:09:03.440Z,0
2017-12-09T01:10:12.768Z,0
2017-12-09T01:11:21.299Z,0
2017-12-09T01:12:29.831Z,0
2017-12-09T01:13:38.897Z,0
2017-12-09T01:14:47.707Z,0
2017-12-09T01:15:56.504Z,0
2017-12-09T01:17:05.296Z,0
2017-12-09T01:18:13.828Z,0
2017-12-09T01:19:22.896Z,0
2017-12-09T01:20:31.699Z,0
2017-12-09T01:21:40.240Z,0
2017-12-09T01:22:48.771Z,0
2017-12-09T01:23:57.565Z,0
2017-12-09T01:25:06.093Z,0
2017-12-09T01:26:15.445Z,0
2017-12-09T01:27:23.979Z,0
2017-12-09T01:28:33.045Z,0
2017-12-09T01:29:41.844Z,0
2017-12-09T01:30:50.638Z,0
2017-12-09T01:31:59.172Z,0
2017-12-09T01:33:07.703Z,0
2017-12-09T01:34:16.233Z,0
2017-12-09T01:35:25.304Z,0
2017-12-09T01:36:34.100Z,0
2017-12-09T01:37:42.630Z,0
2017-12-09T01:38:51.425Z,0
2017-12-09T01:40:00.771Z,0
2017-12-09T01:41:09.569Z,0
2017-12-09T01:42:18.101Z,0
2017-12-09T01:43:26.910Z,0
2017-12-09T01:44:35.988Z,0
2017-12-09T01:45:44.785Z,0
2017-12-09T01:46:53.311Z,0
2017-12-09T01:48:01.841Z,0
2017-12-09T01:49:10.638Z,0
2017-12-09T01:50:19.170Z,0
2017-12-09T01:51:27.700Z,0
2017-12-09T01:52:36.495Z,0
2017-12-09T01:53:45.026Z,0
2017-12-09T01:54:53.821Z,0
2017-12-09T01:56:02.671Z,0
2017-12-09T01:57:11.203Z,0
2017-12-09T01:58:19.997Z,0
2017-12-09T01:59:28.791Z,0
2017-12-09T02:00:37.587Z,0
2017-12-09T02:01:46.655Z,0
2017-12-09T02:02:55.452Z,0
2017-12-09T02:04:04.254Z,0
2017-12-09T02:05:13.870Z,0
2017-12-09T02:06:22.404Z,0
2017-12-09T02:07:31.465Z,0
2017-12-09T02:08:40.261Z,0
2017-12-09T02:09:49.056Z,0
2017-12-09T02:10:57.851Z,0
2017-12-09T02:12:06.381Z,0
2017-12-09T02:13:15.447Z,0
2017-12-09T02:14:23.972Z,0
2017-12-09T02:15:32.818Z,0
2017-12-09T02:16:41.349Z,0
2017-12-09T02:17:50.143Z,0
2017-12-09T02:18:58.675Z,0
2017-12-09T02:20:07.742Z,0
2017-12-09T02:21:16.543Z,0
2017-12-09T02:22:25.346Z,0
2017-12-09T02:23:33.880Z,0
2017-12-09T02:24:42.410Z,0
2017-12-09T02:25:50.946Z,0
2017-12-09T02:27:00.015Z,0
2017-12-09T02:28:09.082Z,0
2017-12-09T02:29:17.619Z,0
2017-12-09T02:30:26.692Z,0
2017-12-09T02:31:35.230Z,0
2017-12-09T02:32:44.297Z,0
2017-12-09T02:33:52.827Z,0
2017-12-09T02:35:01.669Z,0
2017-12-09T02:36:10.425Z,0
2017-12-09T02:37:18.956Z,0
2017-12-09T02:38:28.284Z,0
2017-12-09T02:39:36.816Z,0
2017-12-09T02:40:45.880Z,0
2017-12-09T02:41:54.414Z,0
2017-12-09T02:43:03.212Z,0
2017-12-09T02:44:11.745Z,0
2017-12-09T02:45:20.271Z,0
2017-12-09T02:46:29.067Z,0
2017-12-09T02:47:37.870Z,0
2017-12-09T02:48:46.667Z,0
2017-12-09T02:49:55.464Z,0
2017-12-09T02:51:04.266Z,0
2017-12-09T02:52:13.600Z,0
2017-12-09T02:53:22.131Z,0
2017-12-09T02:54:30.982Z,0
2017-12-09T02:55:40.045Z,0
2017-12-09T02:56:49.109Z,0
2017-12-09T02:57:57.907Z,0
2017-12-09T02:59:06.438Z,0
2017-12-09T03:00:15.508Z,0
2017-12-09T03:01:24.316Z,0
2017-12-09T03:02:33.114Z,0
2017-12-09T03:03:41.911Z,0
2017-12-09T03:04:50.709Z,0
2017-12-09T03:05:59.783Z,0
2017-12-09T03:07:08.844Z,0
2017-12-09T03:08:17.905Z,0
2017-12-09T03:09:26.703Z,0
2017-12-09T03:10:35.777Z,0
2017-12-09T03:11:44.838Z,0
2017-12-09T03:12:53.367Z,0
2017-12-09T03:14:02.168Z,0
2017-12-09T03:15:10.698Z,0
2017-12-09T03:16:19.764Z,0
2017-12-09T03:17:28.560Z,0
2017-12-09T03:18:37.360Z,0
2017-12-09T03:19:46.164Z,0
2017-12-09T03:20:54.959Z,0
2017-12-09T03:22:03.754Z,0
2017-12-09T03:23:12.282Z,0
2017-12-09T03:24:21.089Z,0
2017-12-09T03:25:29.889Z,0
2017-12-09T03:26:38.684Z,0
2017-12-09T03:27:47.485Z,0
2017-12-09T03:28:56.284Z,0
2017-12-09T03:30:05.017Z,0
2017-12-09T03:31:13.838Z,0
2017-12-09T03:32:22.364Z,0
2017-12-09T03:33:30.891Z,0
2017-12-09T03:34:39.418Z,0
2017-12-09T03:35:48.217Z,0
2017-12-09T03:36:56.746Z,0
2017-12-09T03:38:05.546Z,0
2017-12-09T03:39:14.077Z,0
2017-12-09T03:40:22.879Z,0
2017-12-09T03:41:31.410Z,0
2017-12-09T03:42:39.939Z,0
2017-12-09T03:43:48.470Z,0
2017-12-09T03:44:57.003Z,0
2017-12-09T03:46:05.800Z,0
2017-12-09T03:47:14.332Z,0
2017-12-09T03:48:23.127Z,0
2017-12-09T03:49:32.204Z,0
2017-12-09T03:50:40.999Z,0
2017-12-09T03:51:49.803Z,0
2017-12-09T03:52:58.431Z,0
2017-12-09T03:54:07.226Z,0
2017-12-09T03:55:15.759Z,0
2017-12-09T03:56:24.556Z,0
2017-12-09T03:57:33.356Z,0
2017-12-09T03:58:42.153Z,0
2017-12-09T03:59:50.950Z,0
2017-12-09T04:00:59.480Z,0
2017-12-09T04:02:08.010Z,0
2017-12-09T04:03:17.357Z,0
2017-12-09T04:04:26.153Z,0
2017-12-09T04:05:35.216Z,0
2017-12-09T04:06:44.012Z,0
2017-12-09T04:07:53.342Z,0
2017-12-09T04:09:02.420Z,0
2017-12-09T04:10:11.219Z,0
2017-12-09T04:11:20.294Z,0
2017-12-09T04:12:29.364Z,0
2017-12-09T04:13:38.162Z,0
2017-12-09T04:14:46.963Z,0
2017-12-09T04:15:55.492Z,0
2017-12-09T04:17:04.023Z,0
2017-12-09T04:18:13.088Z,0
2017-12-09T04:19:21.618Z,0
2017-12-09T04:20:30.416Z,0
2017-12-09T04:21:39.231Z,0
2017-12-09T04:22:48.295Z,0
2017-12-09T04:23:57.097Z,0
2017-12-09T04:25:05.901Z,0
2017-12-09T04:26:14.966Z,0
2017-12-09T04:27:23.764Z,0
2017-12-09T04:28:32.298Z,0
2017-12-09T04:29:41.099Z,0
2017-12-09T04:30:49.629Z,0
2017-12-09T04:31:58.158Z,0
2017-12-09T04:33:06.687Z,0
2017-12-09T04:34:15.489Z,0
2017-12-09T04:35:24.295Z,0
2017-12-09T04:36:33.088Z,0
2017-12-09T04:37:41.887Z,0
2017-12-09T04:38:50.688Z,0
2017-12-09T04:39:59.753Z,0
2017-12-09T04:41:08.547Z,0
2017-12-09T04:42:17.609Z,0
2017-12-09T04:43:26.406Z,0
2017-12-09T04:44:35.467Z,0
2017-12-09T04:45:44.267Z,0
2017-12-09T04:46:53.068Z,0
2017-12-09T04:48:02.397Z,0
2017-12-09T04:49:11.463Z,0
2017-12-09T04:50:20.258Z,0
2017-12-09T04:51:28.793Z,0
2017-12-09T04:52:37.319Z,0
2017-12-09T04:53:45.850Z,0
2017-12-09T04:54:54.915Z,0
2017-12-09T04:56:03.721Z,0
2017-12-09T04:57:12.252Z,0
2017-12-09T04:58:21.052Z,0
2017-12-09T04:59:29.849Z,0
2017-12-09T05:00:38.645Z,0
2017-12-09T05:01:47.175Z,0
2017-12-09T05:02:55.705Z,0
2017-12-09T05:04:04.502Z,0
2017-12-09T05:05:13.301Z,0
2017-12-09T05:06:22.094Z,0
2017-12-09T05:07:31.159Z,0
2017-12-09T05:08:40.549Z,0
2017-12-09T05:09:49.340Z,0
2017-12-09T05:10:58.134Z,0
2017-12-09T05:12:06.668Z,0
2017-12-09T05:13:15.467Z,0
2017-12-09T05:14:24.002Z,0
2017-12-09T05:15:32.801Z,0
2017-12-09T05:16:41.600Z,0
2017-12-09T05:17:50.398Z,0
2017-12-09T05:18:59.202Z,0
2017-12-09T05:20:07.735Z,0
2017-12-09T05:21:16.532Z,0
2017-12-09T05:22:25.061Z,0
2017-12-09T05:23:33.591Z,0
2017-12-09T05:24:42.398Z,0
2017-12-09T05:25:50.931Z,0
2017-12-09T05:26:59.464Z,0
2017-12-09T05:28:08.528Z,0
2017-12-09T05:29:17.325Z,0
2017-12-09T05:30:26.124Z,0
2017-12-09T05:31:34.922Z,0
2017-12-09T05:32:43.723Z,0
2017-12-09T05:33:52.523Z,0
2017-12-09T05:35:01.589Z,0
2017-12-09T05:36:10.121Z,0
2017-12-09T05:37:18.911Z,0
2017-12-09T05:38:27.708Z,0
2017-12-09T05:39:36.505Z,0
2017-12-09T05:40:45.054Z,0
2017-12-09T05:41:53.836Z,0
2017-12-09T05:43:02.898Z,0
2017-12-09T05:44:11.431Z,0
2017-12-09T05:45:19.968Z,0
2017-12-09T05:46:28.763Z,0
2017-12-09T05:47:37.827Z,0
2017-12-09T05:48:46.688Z,0
2017-12-09T05:49:55.498Z,0
2017-12-09T05:51:04.304Z,0
2017-12-09T05:52:13.636Z,0
2017-12-09T05:53:22.170Z,0
2017-12-09T05:54:31.237Z,0
2017-12-09T05:55:39.771Z,0
2017-12-09T05:56:48.566Z,0
2017-12-09T05:57:57.097Z,0
2017-12-09T05:59:06.163Z,0
2017-12-09T06:00:14.696Z,0
2017-12-09T06:01:23.235Z,0
2017-12-09T06:02:32.042Z,0
2017-12-09T06:03:41.376Z,0
2017-12-09T06:04:50.437Z,0
2017-12-09T06:05:58.969Z,0
2017-12-09T06:07:07.767Z,0
2017-12-09T06:08:16.570Z,0
2017-12-09T06:09:25.361Z,0
2017-12-09T06:10:34.163Z,0
2017-12-09T06:11:43.229Z,0
2017-12-09T06:12:52.294Z,0
2017-12-09T06:14:01.092Z,0
2017-12-09T06:15:10.155Z,0
2017-12-09T06:16:18.952Z,0
2017-12-09T06:17:28.025Z,0
2017-12-09T06:18:37.363Z,0
2017-12-09T06:19:45.893Z,0
2017-12-09T06:20:54.955Z,0
2017-12-09T06:22:03.748Z,0
2017-12-09T06:23:12.545Z,0
2017-12-09T06:24:21.080Z,0
2017-12-09T06:25:30.141Z,0
2017-12-09T06:26:38.668Z,0
2017-12-09T06:27:47.202Z,0
2017-12-09T06:28:56.001Z,0
2017-12-09T06:30:04.734Z,0
2017-12-09T06:31:13.282Z,0
2017-12-09T06:32:22.091Z,0
2017-12-09T06:33:30.628Z,0
2017-12-09T06:34:39.418Z,0
2017-12-09T06:35:48.217Z,0
2017-12-09T06:36:56.754Z,0
2017-12-09T06:38:05.829Z,0
2017-12-09T06:39:14.902Z,0
2017-12-09T06:40:23.699Z,0
2017-12-09T06:41:32.658Z,0
2017-12-09T06:42:41.964Z,0
2017-12-09T06:43:50.761Z,0
2017-12-09T06:44:59.561Z,0
2017-12-09T06:46:08.626Z,0
2017-12-09T06:47:17.690Z,0
2017-12-09T06:48:26.487Z,0
2017-12-09T06:49:35.025Z,0
2017-12-09T06:50:44.353Z,0
2017-12-09T06:51:52.884Z,0
2017-12-09T06:53:01.694Z,0
2017-12-09T06:54:10.756Z,0
2017-12-09T06:55:19.560Z,0
2017-12-09T06:56:28.350Z,0
2017-12-09T06:57:37.147Z,0
2017-12-09T06:58:45.943Z,4
2017-12-09T06:59:54.472Z,4
2017-12-09T07:01:03.534Z,4
2017-12-09T07:02:12.332Z,4
2017-12-09T07:03:20.864Z,4
2017-12-09T07:04:29.395Z,4
2017-12-09T07:05:38.197Z,4
2017-12-09T07:06:47.262Z,8
2017-12-09T07:07:56.328Z,8
2017-12-09T07:09:04.857Z,12
2017-12-09T07:10:13.932Z,12
2017-12-09T07:11:22.996Z,16
2017-12-09T07:12:31.530Z,16
2017-12-09T07:13:40.595Z,20
2017-12-09T07:14:49.124Z,24
2017-12-09T07:15:57.921Z,32
2017-12-09T07:17:06.723Z,32
2017-12-09T07:18:15.524Z,40
2017-12-09T07:19:24.324Z,44
2017-12-09T07:20:33.134Z,48
2017-12-09T07:21:41.665Z,56
2017-12-09T07:22:50.461Z,60
2017-12-09T07:23:59.310Z,100
2017-12-09T07:25:08.108Z,124
2017-12-09T07:26:16.910Z,148
2017-12-09T07:27:25.439Z,164
2017-12-09T07:28:34.235Z,188
2017-12-09T07:29:43.035Z,204
2017-12-09T07:30:51.836Z,220
2017-12-09T07:32:00.369Z,236
2017-12-09T07:33:09.163Z,252
2017-12-09T07:34:17.689Z,264
2017-12-09T07:35:26.755Z,288
2017-12-09T07:36:35.554Z,292
2017-12-09T07:37:44.082Z,288
2017-12-09T07:38:52.882Z,284
2017-12-09T07:40:01.684Z,280
2017-12-09T07:41:10.484Z,276
2017-12-09T07:42:19.013Z,280
2017-12-09T07:43:27.814Z,256
2017-12-09T07:44:36.610Z,244
2017-12-09T07:45:45.138Z,232
2017-12-09T07:46:54.474Z,224
2017-12-09T07:48:03.267Z,236
2017-12-09T07:49:11.796Z,240
2017-12-09T07:50:20.598Z,236
2017-12-09T07:51:29.128Z,244
2017-12-09T07:52:37.922Z,260
2017-12-09T07:53:46.758Z,272
2017-12-09T07:54:55.558Z,292
2017-12-09T07:56:04.362Z,312
2017-12-09T07:57:13.159Z,320
2017-12-09T07:58:21.698Z,356
2017-12-09T07:59:30.493Z,376
2017-12-09T08:00:39.556Z,412
2017-12-09T08:01:48.352Z,432
2017-12-09T08:02:57.151Z,464
2017-12-09T08:04:05.952Z,488
2017-12-09T08:05:14.483Z,492
2017-12-09T08:06:23.277Z,512
2017-12-09T08:07:31.806Z,516
2017-12-09T08:08:40.875Z,484
2017-12-09T08:09:49.405Z,456
2017-12-09T08:10:57.936Z,400
2017-12-09T08:12:06.734Z,336
2017-12-09T08:13:15.535Z,268
2017-12-09T08:14:24.335Z,252
2017-12-09T08:15:33.404Z,244
2017-12-09T08:16:42.469Z,264
2017-12-09T08:17:50.998Z,280
2017-12-09T08:19:00.068Z,292
2017-12-09T08:20:08.601Z,300
2017-12-09T08:21:17.394Z,308
2017-12-09T08:22:26.192Z,332
2017-12-09T08:23:34.988Z,356
2017-12-09T08:24:43.786Z,372
2017-12-09T08:25:52.854Z,384
2017-12-09T08:27:01.658Z,420
2017-12-09T08:28:10.186Z,444
2017-12-09T08:29:18.965Z,472
2017-12-09T08:30:27.761Z,476
2017-12-09T08:31:36.567Z,460
2017-12-09T08:32:45.637Z,452
2017-12-09T08:33:54.168Z,440
2017-12-09T08:35:03.506Z,452
2017-12-09T08:36:12.304Z,456
2017-12-09T08:37:21.104Z,464
2017-12-09T08:38:30.170Z,516
2017-12-09T08:39:38.968Z,560
2017-12-09T08:40:47.764Z,572
2017-12-09T08:41:56.298Z,600
2017-12-09T08:43:04.831Z,604
2017-12-09T08:44:13.627Z,660
2017-12-09T08:45:22.420Z,712
2017-12-09T08:46:31.490Z,760
2017-12-09T08:47:40.286Z,804
2017-12-09T08:48:48.814Z,792
2017-12-09T08:49:57.613Z,872
2017-12-09T08:51:06.689Z,828
2017-12-09T08:52:15.485Z,804
2017-12-09T08:53:24.283Z,716
2017-12-09T08:54:32.816Z,668
2017-12-09T08:55:41.348Z,656
2017-12-09T08:56:49.878Z,612
2017-12-09T08:57:58.412Z,572
2017-12-09T08:59:07.212Z,568
2017-12-09T09:00:16.282Z,536
2017-12-09T09:01:25.078Z,556
2017-12-09T09:02:33.881Z,540
2017-12-09T09:03:43.211Z,560
2017-12-09T09:04:52.007Z,608
2017-12-09T09:06:01.069Z,668
2017-12-09T09:07:10.418Z,740
2017-12-09T09:08:18.948Z,860
2017-12-09T09:09:28.340Z,944
2017-12-09T09:10:36.867Z,916
2017-12-09T09:11:45.665Z,792
2017-12-09T09:12:54.464Z,716
2017-12-09T09:14:03.267Z,692
2017-12-09T09:15:12.072Z,704
2017-12-09T09:16:20.868Z,768
2017-12-09T09:17:29.934Z,840
2017-12-09T09:18:38.466Z,1016
2017-12-09T09:19:46.996Z,1412
2017-12-09T09:20:56.339Z,1328
2017-12-09T09:22:05.135Z,1268
2017-12-09T09:23:13.665Z,1400
2017-12-09T09:24:22.198Z,1592
2017-12-09T09:25:31.261Z,1732
2017-12-09T09:26:40.077Z,1616
2017-12-09T09:27:49.393Z,1384
2017-12-09T09:28:57.929Z,1212
2017-12-09T09:30:06.462Z,1024
2017-12-09T09:31:16.414Z,968
2017-12-09T09:32:25.212Z,972
2017-12-09T09:33:33.745Z,944
2017-12-09T09:34:42.546Z,980
2017-12-09T09:35:51.344Z,1124
2017-12-09T09:37:00.144Z,1228
2017-12-09T09:38:09.219Z,1348
2017-12-09T09:39:18.296Z,1288
2017-12-09T09:40:26.830Z,1476
2017-12-09T09:41:35.916Z,1700
2017-12-09T09:42:44.809Z,1772
2017-12-09T09:43:53.607Z,1612
2017-12-09T09:45:02.941Z,1336
2017-12-09T09:46:11.744Z,1296
2017-12-09T09:47:20.572Z,1308
2017-12-09T09:48:29.633Z,1196
2017-12-09T09:49:38.169Z,1204
2017-12-09T09:50:46.968Z,1292
2017-12-09T09:51:56.573Z,1192
2017-12-09T09:53:05.432Z,1052
2017-12-09T09:54:14.229Z,1048
2017-12-09T09:55:23.029Z,1204
2017-12-09T09:56:31.557Z,1204
2017-12-09T09:57:40.353Z,1148
2017-12-09T09:58:49.423Z,1108
2017-12-09T09:59:57.954Z,1140
2017-12-09T10:01:07.204Z,1180
2017-12-09T10:02:15.736Z,1368
2017-12-09T10:03:24.806Z,1916
2017-12-09T10:04:33.331Z,2096
2017-12-09T10:05:42.395Z,2792
2017-12-09T10:06:50.924Z,3588
2017-12-09T10:07:59.461Z,3740
2017-12-09T10:09:08.261Z,3544
2017-12-09T10:10:17.057Z,3508
2017-12-09T10:11:25.856Z,2988
2017-12-09T10:12:34.389Z,2976
2017-12-09T10:13:43.194Z,2416
2017-12-09T10:14:51.725Z,2188
2017-12-09T10:16:00.521Z,2252
2017-12-09T10:17:09.319Z,1988
2017-12-09T10:18:17.849Z,1920
2017-12-09T10:19:26.380Z,2084
2017-12-09T10:20:35.530Z,2376
2017-12-09T10:21:44.060Z,2452
2017-12-09T10:22:52.961Z,2548
2017-12-09T10:24:01.493Z,3140
2017-12-09T10:25:10.289Z,3448
2017-12-09T10:26:18.822Z,3388
2017-12-09T10:27:27.622Z,3232
2017-12-09T10:28:36.426Z,3064
2017-12-09T10:29:44.957Z,2916
2017-12-09T10:30:53.497Z,3148
2017-12-09T10:32:02.561Z,3688
2017-12-09T10:33:11.105Z,3764
2017-12-09T10:34:19.905Z,4728
2017-12-09T10:35:28.435Z,4900
2017-12-09T10:36:36.969Z,4512
2017-12-09T10:37:45.767Z,5296
2017-12-09T10:38:54.834Z,5596
2017-12-09T10:40:03.375Z,6576
2017-12-09T10:41:11.919Z,6996
2017-12-09T10:42:20.706Z,6880
2017-12-09T10:43:29.550Z,6744
2017-12-09T10:44:38.403Z,6280
2017-12-09T10:45:46.933Z,6076
2017-12-09T10:46:55.751Z,5404
2017-12-09T10:48:04.284Z,5084
2017-12-09T10:49:13.085Z,4880
2017-12-09T10:50:22.152Z,5316
2017-12-09T10:51:30.954Z,4952
2017-12-09T10:52:39.488Z,4880
2017-12-09T10:53:48.020Z,5040
2017-12-09T10:54:56.821Z,4920
2017-12-09T10:56:05.893Z,5236
2017-12-09T10:57:14.969Z,5220
2017-12-09T10:58:23.766Z,5024
2017-12-09T10:59:32.296Z,5272
2017-12-09T11:00:40.827Z,5100
2017-12-09T11:01:49.627Z,5052
2017-12-09T11:02:58.433Z,4852
2017-12-09T11:04:06.973Z,4928
2017-12-09T11:05:15.506Z,5056
2017-12-09T11:06:24.572Z,5400
2017-12-09T11:07:33.642Z,5444
2017-12-09T11:08:42.450Z,5300
2017-12-09T11:09:50.987Z,5496
2017-12-09T11:11:00.064Z,5048
2017-12-09T11:12:08.878Z,5272
2017-12-09T11:13:17.403Z,5200
2017-12-09T11:14:26.200Z,5184
2017-12-09T11:15:35.357Z,5192
2017-12-09T11:16:44.221Z,5028
2017-12-09T11:17:52.960Z,4988
2017-12-09T11:19:01.496Z,4880
2017-12-09T11:20:10.831Z,4752
2017-12-09T11:21:19.638Z,4824
2017-12-09T11:22:28.437Z,4952
2017-12-09T11:23:36.971Z,5116
2017-12-09T11:24:46.037Z,5132
2017-12-09T11:25:54.571Z,4872
2017-12-09T11:27:03.646Z,4372
2017-12-09T11:28:12.445Z,3808
2017-12-09T11:29:21.242Z,3728
2017-12-09T11:30:30.040Z,3604
2017-12-09T11:31:38.838Z,3720
2017-12-09T11:32:47.637Z,3892
2017-12-09T11:33:56.171Z,4108
2017-12-09T11:35:04.973Z,4220
2017-12-09T11:36:13.505Z,4468
2017-12-09T11:37:22.033Z,4448
2017-12-09T11:38:31.381Z,4512
2017-12-09T11:39:39.917Z,4508
2017-12-09T11:40:48.732Z,4204
2017-12-09T11:41:57.573Z,3800
2017-12-09T11:43:06.116Z,4504
2017-12-09T11:44:14.932Z,4532
2017-12-09T11:45:23.472Z,4500
2017-12-09T11:46:32.273Z,4144
2017-12-09T11:47:40.810Z,4236
2017-12-09T11:48:49.609Z,4296
2017-12-09T11:49:58.680Z,4268
2017-12-09T11:51:07.478Z,4404
2017-12-09T11:52:16.277Z,4408
2017-12-09T11:53:25.366Z,4648
2017-12-09T11:54:34.168Z,4748
2017-12-09T11:55:42.958Z,4756
2017-12-09T11:56:51.493Z,4584
2017-12-09T11:58:00.043Z,4280
2017-12-09T11:59:08.839Z,4408
2017-12-09T12:00:17.638Z,4428
2017-12-09T12:01:26.167Z,4320
2017-12-09T12:02:34.697Z,4352
2017-12-09T12:03:43.758Z,4392
2017-12-09T12:04:53.362Z,3976
2017-12-09T12:06:02.214Z,4296
2017-12-09T12:07:11.064Z,4492
2017-12-09T12:08:20.139Z,4612
2017-12-09T12:09:28.671Z,4540
2017-12-09T12:10:37.473Z,4632
2017-12-09T12:11:46.005Z,4772
2017-12-09T12:12:55.320Z,5584
2017-12-09T12:14:03.853Z,5688
2017-12-09T12:15:12.397Z,5740
2017-12-09T12:16:20.932Z,4980
2017-12-09T12:17:30.262Z,4636
2017-12-09T12:18:38.793Z,4588
2017-12-09T12:19:47.322Z,4832
2017-12-09T12:20:56.172Z,4608
2017-12-09T12:22:04.972Z,3940
2017-12-09T12:23:13.507Z,4132
2017-12-09T12:24:22.055Z,3836
2017-12-09T12:25:31.340Z,2868
2017-12-09T12:26:39.873Z,2440
2017-12-09T12:27:48.411Z,2460
2017-12-09T12:28:56.947Z,3368
2017-12-09T12:30:06.279Z,4980
2017-12-09T12:31:14.813Z,6480
2017-12-09T12:32:23.341Z,7288
2017-12-09T12:33:32.141Z,7184
2017-12-09T12:34:40.937Z,6316
2017-12-09T12:35:49.746Z,6428
2017-12-09T12:36:58.543Z,5336
2017-12-09T12:38:07.345Z,5160
2017-12-09T12:39:16.737Z,4608
2017-12-09T12:40:26.317Z,4108
2017-12-09T12:41:34.850Z,3524
2017-12-09T12:42:43.648Z,3324
2017-12-09T12:43:52.179Z,4476
2017-12-09T12:45:00.718Z,5200
2017-12-09T12:46:09.786Z,6228
2017-12-09T12:47:18.587Z,8888
2017-12-09T12:48:27.587Z,8788
2017-12-09T12:49:36.148Z,6632
2017-12-09T12:50:44.680Z,5672
2017-12-09T12:51:53.221Z,4312
2017-12-09T12:53:01.754Z,2636
2017-12-09T12:54:10.548Z,1992
2017-12-09T12:55:19.887Z,1864
2017-12-09T12:56:28.959Z,1820
2017-12-09T12:57:37.494Z,1808
2017-12-09T12:58:46.297Z,1816
2017-12-09T12:59:55.374Z,1716
2017-12-09T13:01:03.914Z,2072
2017-12-09T13:02:13.000Z,1796
2017-12-09T13:03:21.807Z,1628
2017-12-09T13:04:30.348Z,1576
2017-12-09T13:05:38.883Z,1500
2017-12-09T13:06:47.690Z,1476
2017-12-09T13:07:56.226Z,1612
2017-12-09T13:09:04.769Z,1692
2017-12-09T13:10:13.579Z,1688
2017-12-09T13:11:22.389Z,1952
2017-12-09T13:12:30.938Z,2672
2017-12-09T13:13:39.473Z,3092
2017-12-09T13:14:48.005Z,2996
2017-12-09T13:15:57.339Z,2048
2017-12-09T13:17:05.866Z,1848
2017-12-09T13:18:14.665Z,1816
2017-12-09T13:19:23.730Z,1700
2017-12-09T13:20:32.530Z,1992
2017-12-09T13:21:41.332Z,2032
2017-12-09T13:22:50.131Z,1832
2017-12-09T13:23:59.462Z,1724
2017-12-09T13:25:07.994Z,1948
2017-12-09T13:26:16.792Z,2796
2017-12-09T13:27:25.329Z,3740
2017-12-09T13:28:33.867Z,3864
2017-12-09T13:29:42.665Z,4028
2017-12-09T13:30:51.197Z,4564
2017-12-09T13:31:59.727Z,4268
2017-12-09T13:33:08.261Z,3480
2017-12-09T13:34:17.062Z,2900
2017-12-09T13:35:26.133Z,2908
2017-12-09T13:36:34.668Z,2948
2017-12-09T13:37:43.200Z,2844
2017-12-09T13:38:52.265Z,2328
2017-12-09T13:40:01.067Z,2152
2017-12-09T13:41:09.862Z,2148
2017-12-09T13:42:18.664Z,2288
2017-12-09T13:43:27.458Z,2380
2017-12-09T13:44:36.260Z,2364
2017-12-09T13:45:44.841Z,2652
2017-12-09T13:46:53.648Z,2840
2017-12-09T13:48:02.444Z,2464
2017-12-09T13:49:11.260Z,2136
2017-12-09T13:50:19.838Z,1896
2017-12-09T13:51:28.905Z,1752
2017-12-09T13:52:37.612Z,1548
2017-12-09T13:53:46.866Z,1760
2017-12-09T13:54:55.400Z,1692
2017-12-09T13:56:04.224Z,1672
2017-12-09T13:57:13.640Z,1224
2017-12-09T13:58:22.493Z,944
2017-12-09T13:59:31.102Z,984
2017-12-09T14:00:40.059Z,1560
2017-12-09T14:01:48.797Z,1908
2017-12-09T14:02:57.654Z,2256
2017-12-09T14:04:06.290Z,2384
2017-12-09T14:05:15.088Z,2100
2017-12-09T14:06:23.619Z,1760
2017-12-09T14:07:32.418Z,1608
2017-12-09T14:08:40.947Z,1500
2017-12-09T14:09:49.481Z,1380
2017-12-09T14:10:58.282Z,1284
2017-12-09T14:12:07.631Z,1160
2017-12-09T14:13:16.437Z,1132
2017-12-09T14:14:24.968Z,1080
2017-12-09T14:15:33.497Z,1048
2017-12-09T14:16:42.566Z,964
2017-12-09T14:17:51.107Z,784
2017-12-09T14:19:00.176Z,896
2017-12-09T14:20:08.708Z,884
2017-12-09T14:21:17.508Z,816
2017-12-09T14:22:26.036Z,732
2017-12-09T14:23:34.565Z,760
2017-12-09T14:24:43.636Z,732
2017-12-09T14:25:52.436Z,604
2017-12-09T14:27:01.502Z,544
2017-12-09T14:28:10.039Z,556
2017-12-09T14:29:19.105Z,632
2017-12-09T14:30:27.905Z,744
2017-12-09T14:31:36.437Z,724
2017-12-09T14:32:44.977Z,748
2017-12-09T14:33:53.780Z,760
2017-12-09T14:35:02.844Z,704
2017-12-09T14:36:11.544Z,612
2017-12-09T14:37:20.089Z,588
2017-12-09T14:38:28.896Z,604
2017-12-09T14:39:37.695Z,616
2017-12-09T14:40:46.495Z,540
2017-12-09T14:41:55.037Z,496
2017-12-09T14:43:03.837Z,516
2017-12-09T14:44:12.910Z,464
2017-12-09T14:45:21.710Z,404
2017-12-09T14:46:30.775Z,356
2017-12-09T14:47:39.839Z,352
2017-12-09T14:48:50.095Z,416
2017-12-09T14:50:00.814Z,456
2017-12-09T14:51:10.583Z,480
2017-12-09T14:52:19.471Z,492
2017-12-09T14:53:28.696Z,520
2017-12-09T14:54:37.811Z,492
2017-12-09T14:55:46.885Z,456
2017-12-09T14:56:56.953Z,436
2017-12-09T14:58:06.421Z,412
2017-12-09T14:59:14.967Z,392
2017-12-09T15:00:24.035Z,396
2017-12-09T15:01:33.097Z,380
2017-12-09T15:02:42.697Z,336
2017-12-09T15:03:51.767Z,356
2017-12-09T15:05:00.568Z,320
2017-12-09T15:06:09.405Z,308
2017-12-09T15:07:18.534Z,312
2017-12-09T15:08:27.456Z,300
2017-12-09T15:09:36.252Z,232
2017-12-09T15:10:45.051Z,224
2017-12-09T15:11:53.584Z,224
2017-12-09T15:13:02.588Z,232
2017-12-09T15:14:11.384Z,240
2017-12-09T15:15:19.918Z,236
2017-12-09T15:16:28.717Z,220
2017-12-09T15:17:37.525Z,216
2017-12-09T15:18:46.602Z,200
2017-12-09T15:19:55.145Z,180
2017-12-09T15:21:04.218Z,156
2017-12-09T15:22:13.024Z,132
2017-12-09T15:23:21.565Z,120
2017-12-09T15:24:30.386Z,120
2017-12-09T15:25:38.963Z,112
2017-12-09T15:26:47.504Z,96
2017-12-09T15:27:56.308Z,84
2017-12-09T15:29:05.386Z,80
2017-12-09T15:30:14.191Z,72
2017-12-09T15:31:22.732Z,68
2017-12-09T15:32:31.275Z,60
2017-12-09T15:33:40.103Z,52
2017-12-09T15:34:48.905Z,48
2017-12-09T15:35:57.435Z,44
2017-12-09T15:37:05.984Z,40
2017-12-09T15:38:14.820Z,32
2017-12-09T15:39:23.620Z,24
2017-12-09T15:40:32.421Z,24
2017-12-09T15:41:41.506Z,20
2017-12-09T15:42:50.841Z,20
2017-12-09T15:43:59.969Z,12
2017-12-09T15:45:08.770Z,12
2017-12-09T15:46:17.834Z,8
2017-12-09T15:47:26.941Z,8
2017-12-09T15:48:36.016Z,8
2017-12-09T15:49:44.543Z,4
2017-12-09T15:50:53.077Z,4
2017-12-09T15:52:01.614Z,4
2017-12-09T15:53:10.699Z,4
2017-12-09T15:54:19.233Z,0
2017-12-09T15:55:28.035Z,0
2017-12-09T15:56:36.841Z,0
2017-12-09T15:57:45.377Z,0
2017-12-09T15:58:54.174Z,36
2017-12-09T16:00:02.975Z,52
2017-12-09T16:01:12.137Z,64
2017-12-09T16:02:20.667Z,72
2017-12-09T16:03:29.478Z,0
2017-12-09T16:04:38.544Z,0
2017-12-09T16:05:47.607Z,0
2017-12-09T16:06:56.145Z,0
2017-12-09T16:08:04.942Z,0
2017-12-09T16:09:14.019Z,0